FOXAE ETNH-LFEB
Flight info
| Callsign | FOXAE |
|---|---|
| Flight time | N/A |
| Altitude | 18000 |
| Route | BADOS DCT EEL N872 PAM L980 ABNED Z344 AMRIV Q63 ARREK Y4 TEBRA DCT NEVIL UZ273 BEVAV |
| Aircraft | B58T/L-SDFGRY/C |
Departure
| Time | N/A |
|---|---|
| Airport | Hohn Air Base (ETNH) |
Arrival
| Time | 2026-04-21 10:38 |
|---|---|
| Airport | Dinan-Trélivan Airfield (LFEB) |
| Time | Latitude | Longitude | Altitude | Speed | Heading |
|---|---|---|---|---|---|
| 2026-04-21 10:09 | 49.62234 | -1.03986 | 18217 ft | 185 kts | 239° |
| 2026-04-21 10:09 | 49.61419 | -1.05531 | 18217 ft | 186 kts | 239° |
| 2026-04-21 10:09 | 49.60609 | -1.07062 | 18211 ft | 187 kts | 239° |
| 2026-04-21 10:09 | 49.59787 | -1.08614 | 18206 ft | 187 kts | 239° |
| 2026-04-21 10:10 | 49.58961 | -1.10168 | 18203 ft | 187 kts | 238° |
| 2026-04-21 10:10 | 49.58024 | -1.11595 | 18205 ft | 193 kts | 227° |
| 2026-04-21 10:10 | 49.56928 | -1.12821 | 18206 ft | 195 kts | 224° |
| 2026-04-21 10:10 | 49.55837 | -1.14051 | 18206 ft | 194 kts | 225° |
| 2026-04-21 10:11 | 49.54749 | -1.15288 | 18209 ft | 194 kts | 225° |
| 2026-04-21 10:11 | 49.53661 | -1.16525 | 18207 ft | 195 kts | 225° |
| 2026-04-21 10:11 | 49.52571 | -1.17764 | 18207 ft | 195 kts | 225° |
| 2026-04-21 10:11 | 49.51480 | -1.19001 | 18190 ft | 194 kts | 225° |
| 2026-04-21 10:12 | 49.50394 | -1.20229 | 18199 ft | 194 kts | 225° |
| 2026-04-21 10:12 | 49.49311 | -1.21454 | 18203 ft | 193 kts | 225° |
| 2026-04-21 10:12 | 49.48225 | -1.22680 | 18204 ft | 193 kts | 225° |
| 2026-04-21 10:12 | 49.47141 | -1.23904 | 18203 ft | 194 kts | 225° |
| 2026-04-21 10:13 | 49.46052 | -1.25133 | 18204 ft | 194 kts | 225° |
| 2026-04-21 10:13 | 49.44966 | -1.26357 | 18204 ft | 194 kts | 225° |
| 2026-04-21 10:13 | 49.43879 | -1.27581 | 18204 ft | 194 kts | 225° |
| 2026-04-21 10:13 | 49.42792 | -1.28806 | 18202 ft | 194 kts | 225° |
| 2026-04-21 10:14 | 49.41717 | -1.30016 | 18203 ft | 194 kts | 225° |
| 2026-04-21 10:14 | 49.40629 | -1.31238 | 18199 ft | 194 kts | 225° |
| 2026-04-21 10:14 | 49.39541 | -1.32462 | 18202 ft | 194 kts | 225° |
| 2026-04-21 10:14 | 49.38450 | -1.33687 | 18192 ft | 194 kts | 224° |
| 2026-04-21 10:15 | 49.37366 | -1.34902 | 18197 ft | 192 kts | 224° |
| 2026-04-21 10:15 | 49.36291 | -1.36107 | 18197 ft | 191 kts | 224° |
| 2026-04-21 10:15 | 49.35219 | -1.37309 | 18207 ft | 191 kts | 224° |
| 2026-04-21 10:15 | 49.34150 | -1.38507 | 18199 ft | 191 kts | 224° |
| 2026-04-21 10:16 | 49.33078 | -1.39709 | 18193 ft | 191 kts | 224° |
| 2026-04-21 10:16 | 49.32005 | -1.40910 | 18196 ft | 191 kts | 224° |
| 2026-04-21 10:16 | 49.30933 | -1.42112 | 18195 ft | 191 kts | 224° |
| 2026-04-21 10:16 | 49.29860 | -1.43311 | 18192 ft | 191 kts | 224° |
| 2026-04-21 10:17 | 49.28791 | -1.44506 | 18182 ft | 190 kts | 224° |
| 2026-04-21 10:17 | 49.27728 | -1.45693 | 18186 ft | 189 kts | 224° |
| 2026-04-21 10:17 | 49.26666 | -1.46877 | 18196 ft | 188 kts | 224° |
| 2026-04-21 10:17 | 49.25609 | -1.48057 | 18195 ft | 188 kts | 224° |
| 2026-04-21 10:18 | 49.24549 | -1.49239 | 18189 ft | 188 kts | 224° |
| 2026-04-21 10:18 | 49.23490 | -1.50421 | 18186 ft | 188 kts | 224° |
| 2026-04-21 10:18 | 49.22431 | -1.51602 | 18187 ft | 188 kts | 224° |
| 2026-04-21 10:18 | 49.21385 | -1.52767 | 18185 ft | 189 kts | 224° |
| 2026-04-21 10:19 | 49.20323 | -1.53948 | 18190 ft | 189 kts | 224° |
| 2026-04-21 10:19 | 49.19261 | -1.55130 | 18186 ft | 189 kts | 224° |
| 2026-04-21 10:19 | 49.18200 | -1.56310 | 18186 ft | 189 kts | 224° |
| 2026-04-21 10:19 | 49.17122 | -1.57514 | 17987 ft | 197 kts | 224° |
| 2026-04-21 10:20 | 49.15993 | -1.58782 | 17688 ft | 205 kts | 223° |
| 2026-04-21 10:20 | 49.14827 | -1.60081 | 17393 ft | 210 kts | 223° |
| 2026-04-21 10:20 | 49.13636 | -1.61402 | 17046 ft | 213 kts | 222° |
| 2026-04-21 10:20 | 49.12428 | -1.62737 | 16704 ft | 215 kts | 222° |
| 2026-04-21 10:21 | 49.11213 | -1.64077 | 16366 ft | 215 kts | 222° |
| 2026-04-21 10:21 | 49.09998 | -1.65418 | 16032 ft | 216 kts | 221° |
| 2026-04-21 10:21 | 49.08782 | -1.66762 | 15698 ft | 216 kts | 221° |
| 2026-04-21 10:21 | 49.07566 | -1.68103 | 15380 ft | 216 kts | 221° |
| 2026-04-21 10:22 | 49.06291 | -1.69326 | 15045 ft | 218 kts | 211° |
| 2026-04-21 10:22 | 49.04890 | -1.70263 | 14728 ft | 219 kts | 207° |
| 2026-04-21 10:22 | 49.03489 | -1.71189 | 14415 ft | 219 kts | 207° |
| 2026-04-21 10:22 | 49.02094 | -1.72127 | 14105 ft | 220 kts | 209° |
| 2026-04-21 10:23 | 49.00711 | -1.73058 | 13772 ft | 220 kts | 208° |
| 2026-04-21 10:23 | 48.99312 | -1.74000 | 13426 ft | 220 kts | 207° |
| 2026-04-21 10:23 | 48.97918 | -1.74939 | 13080 ft | 219 kts | 207° |
| 2026-04-21 10:23 | 48.96527 | -1.75866 | 12742 ft | 217 kts | 207° |
| 2026-04-21 10:24 | 48.95150 | -1.76789 | 12401 ft | 215 kts | 205° |
| 2026-04-21 10:24 | 48.93786 | -1.77698 | 12066 ft | 214 kts | 206° |
| 2026-04-21 10:24 | 48.92425 | -1.78602 | 11736 ft | 213 kts | 206° |
| 2026-04-21 10:24 | 48.91076 | -1.79502 | 11411 ft | 212 kts | 204° |
| 2026-04-21 10:25 | 48.89726 | -1.80401 | 11081 ft | 212 kts | 204° |
| 2026-04-21 10:25 | 48.88376 | -1.81301 | 10761 ft | 211 kts | 204° |
| 2026-04-21 10:25 | 48.87037 | -1.82193 | 10443 ft | 209 kts | 203° |
| 2026-04-21 10:25 | 48.85706 | -1.83077 | 10129 ft | 209 kts | 202° |
| 2026-04-21 10:26 | 48.84379 | -1.83958 | 9790 ft | 207 kts | 202° |
| 2026-04-21 10:26 | 48.83062 | -1.84834 | 9443 ft | 206 kts | 202° |
| 2026-04-21 10:26 | 48.81754 | -1.85709 | 9097 ft | 205 kts | 202° |
| 2026-04-21 10:26 | 48.80500 | -1.86695 | 8753 ft | 206 kts | 207° |
| 2026-04-21 10:27 | 48.79256 | -1.87766 | 8418 ft | 205 kts | 208° |
| 2026-04-21 10:27 | 48.78010 | -1.88836 | 8087 ft | 206 kts | 206° |
| 2026-04-21 10:27 | 48.76753 | -1.89895 | 7758 ft | 206 kts | 206° |
| 2026-04-21 10:27 | 48.75502 | -1.90934 | 7429 ft | 204 kts | 206° |
| 2026-04-21 10:28 | 48.74257 | -1.91967 | 7110 ft | 205 kts | 204° |
| 2026-04-21 10:28 | 48.73012 | -1.92989 | 6792 ft | 202 kts | 205° |
| 2026-04-21 10:28 | 48.71780 | -1.94008 | 6467 ft | 201 kts | 204° |
| 2026-04-21 10:28 | 48.70553 | -1.95019 | 6132 ft | 201 kts | 203° |
| 2026-04-21 10:29 | 48.69349 | -1.96002 | 5802 ft | 200 kts | 203° |
| 2026-04-21 10:29 | 48.68105 | -1.97027 | 5456 ft | 199 kts | 203° |
| 2026-04-21 10:29 | 48.66912 | -1.98012 | 5133 ft | 197 kts | 202° |
| 2026-04-21 10:29 | 48.65706 | -1.99001 | 4800 ft | 197 kts | 202° |
| 2026-04-21 10:30 | 48.64504 | -1.99982 | 4474 ft | 196 kts | 202° |
| 2026-04-21 10:30 | 48.63328 | -2.00944 | 4141 ft | 195 kts | 202° |
| 2026-04-21 10:30 | 48.62114 | -2.01939 | 3795 ft | 195 kts | 202° |
| 2026-04-21 10:30 | 48.60923 | -2.02915 | 3456 ft | 194 kts | 201° |
| 2026-04-21 10:31 | 48.59735 | -2.03883 | 3137 ft | 194 kts | 200° |
| 2026-04-21 10:31 | 48.58543 | -2.04841 | 2798 ft | 194 kts | 201° |
| 2026-04-21 10:31 | 48.57361 | -2.05828 | 2454 ft | 194 kts | 202° |
| 2026-04-21 10:31 | 48.56180 | -2.06802 | 2116 ft | 193 kts | 200° |
| 2026-04-21 10:32 | 48.55005 | -2.07766 | 1764 ft | 191 kts | 202° |
| 2026-04-21 10:32 | 48.53827 | -2.08705 | 1458 ft | 192 kts | 202° |
| 2026-04-21 10:32 | 48.52726 | -2.09589 | 1123 ft | 191 kts | 202° |
| 2026-04-21 10:32 | 48.51566 | -2.10512 | 1026 ft | 182 kts | 204° |
| 2026-04-21 10:33 | 48.50494 | -2.11421 | 976 ft | 177 kts | 204° |
| 2026-04-21 10:33 | 48.49386 | -2.12142 | 946 ft | 170 kts | 200° |
| 2026-04-21 10:33 | 48.48491 | -2.13315 | 948 ft | 175 kts | 219° |
| 2026-04-21 10:33 | 48.47570 | -2.14460 | 933 ft | 169 kts | 212° |
| 2026-04-21 10:34 | 48.46673 | -2.15544 | 931 ft | 161 kts | 213° |
| 2026-04-21 10:34 | 48.45809 | -2.16627 | 911 ft | 162 kts | 214° |
| 2026-04-21 10:34 | 48.44924 | -2.17695 | 915 ft | 168 kts | 226° |
| 2026-04-21 10:34 | 48.44348 | -2.19253 | 946 ft | 173 kts | 242° |
| 2026-04-21 10:35 | 48.43837 | -2.20903 | 933 ft | 174 kts | 243° |
| 2026-04-21 10:35 | 48.43526 | -2.22010 | 935 ft | 173 kts | 243° |
| 2026-04-21 10:35 | 48.42410 | -2.23449 | 933 ft | 156 kts | 178° |
| 2026-04-21 10:35 | 48.41744 | -2.23284 | 936 ft | 140 kts | 144° |
| 2026-04-21 10:36 | 48.41202 | -2.22264 | 920 ft | 122 kts | 97° |
| 2026-04-21 10:36 | 48.41344 | -2.21071 | 920 ft | 115 kts | 68° |
| 2026-04-21 10:36 | 48.41804 | -2.20096 | 930 ft | 114 kts | 55° |
| 2026-04-21 10:36 | 48.42235 | -2.19128 | 926 ft | 108 kts | 70° |
| 2026-04-21 10:37 | 48.42456 | -2.18066 | 902 ft | 106 kts | 70° |
| 2026-04-21 10:37 | 48.42781 | -2.17084 | 932 ft | 103 kts | 68° |
| 2026-04-21 10:37 | 48.42965 | -2.16128 | 939 ft | 82 kts | 78° |
| 2026-04-21 10:37 | 48.43106 | -2.15346 | 917 ft | 74 kts | 71° |
| 2026-04-21 10:38 | 48.43311 | -2.14657 | 881 ft | 74 kts | 65° |
| 2026-04-21 10:38 | 48.43504 | -2.13894 | 705 ft | 83 kts | 69° |
| 2026-04-21 10:38 | 48.43749 | -2.13545 | 340 ft | 16 kts | 160° |